sensor_id;sensor_type;location;lat;lon;timestamp;pressure;altitude;pressure_sealevel;temperature;humidity
20620;BME280;10469;42.720;23.252;2023-03-16T00:00:45;94069.19;;;2.71;100.00
20620;BME280;10469;42.720;23.252;2023-03-16T00:03:12;94057.81;;;2.64;100.00
20620;BME280;10469;42.720;23.252;2023-03-16T00:05:44;94046.09;;;2.34;100.00
20620;BME280;10469;42.720;23.252;2023-03-16T00:08:11;94073.13;;;2.36;100.00
20620;BME280;10469;42.720;23.252;2023-03-16T00:10:36;94058.28;;;2.35;100.00
20620;BME280;10469;42.720;23.252;2023-03-16T00:13:02;94008.47;;;2.18;100.00
20620;BME280;10469;42.720;23.252;2023-03-16T00:15:27;94089.59;;;2.64;100.00
20620;BME280;10469;42.720;23.252;2023-03-16T00:17:54;94066.75;;;2.70;100.00
20620;BME280;10469;42.720;23.252;2023-03-16T00:20:19;94086.66;;;2.92;100.00
20620;BME280;10469;42.720;23.252;2023-03-16T00:22:45;94085.28;;;2.76;100.00
20620;BME280;10469;42.720;23.252;2023-03-16T00:25:12;94085.13;;;2.45;100.00
20620;BME280;10469;42.720;23.252;2023-03-16T00:27:38;94095.06;;;2.69;100.00
20620;BME280;10469;42.720;23.252;2023-03-16T00:30:06;94098.09;;;2.80;100.00
20620;BME280;10469;42.720;23.252;2023-03-16T00:32:33;94095.28;;;2.61;100.00
20620;BME280;10469;42.720;23.252;2023-03-16T00:35:00;94093.63;;;2.67;100.00
20620;BME280;10469;42.720;23.252;2023-03-16T00:37:27;94104.78;;;2.89;100.00
20620;BME280;10469;42.720;23.252;2023-03-16T00:39:54;94092.00;;;2.66;100.00
20620;BME280;10469;42.720;23.252;2023-03-16T00:42:25;94073.09;;;2.62;100.00
20620;BME280;10469;42.720;23.252;2023-03-16T00:44:56;94101.94;;;2.84;100.00
20620;BME280;10469;42.720;23.252;2023-03-16T00:47:28;94080.03;;;2.57;100.00
20620;BME280;10469;42.720;23.252;2023-03-16T00:49:54;94107.88;;;2.86;100.00
20620;BME280;10469;42.720;23.252;2023-03-16T00:52:20;94101.34;;;2.82;100.00
20620;BME280;10469;42.720;23.252;2023-03-16T00:54:47;94108.25;;;2.96;100.00
20620;BME280;10469;42.720;23.252;2023-03-16T00:57:16;94099.97;;;2.72;100.00
20620;BME280;10469;42.720;23.252;2023-03-16T00:59:46;94115.44;;;2.62;100.00
20620;BME280;10469;42.720;23.252;2023-03-16T01:02:12;94096.09;;;2.68;100.00
20620;BME280;10469;42.720;23.252;2023-03-16T01:04:39;94083.50;;;2.44;100.00
20620;BME280;10469;42.720;23.252;2023-03-16T01:07:11;94113.59;;;2.69;100.00
20620;BME280;10469;42.720;23.252;2023-03-16T01:09:38;94103.44;;;2.60;100.00
20620;BME280;10469;42.720;23.252;2023-03-16T01:12:09;94105.66;;;2.63;100.00
20620;BME280;10469;42.720;23.252;2023-03-16T01:14:35;94086.34;;;2.49;100.00
20620;BME280;10469;42.720;23.252;2023-03-16T01:17:02;94106.25;;;2.71;100.00
20620;BME280;10469;42.720;23.252;2023-03-16T01:19:29;94101.22;;;2.43;100.00
20620;BME280;10469;42.720;23.252;2023-03-16T01:21:58;94112.03;;;2.22;100.00
20620;BME280;10469;42.720;23.252;2023-03-16T01:24:23;94113.84;;;2.21;100.00
20620;BME280;10469;42.720;23.252;2023-03-16T01:26:49;94104.69;;;2.11;100.00
20620;BME280;10469;42.720;23.252;2023-03-16T01:29:14;94089.41;;;1.80;100.00
20620;BME280;10469;42.720;23.252;2023-03-16T01:31:40;94095.13;;;2.03;100.00
20620;BME280;10469;42.720;23.252;2023-03-16T01:34:05;94102.25;;;1.96;100.00
20620;BME280;10469;42.720;23.252;2023-03-16T01:36:31;94100.41;;;1.96;100.00
20620;BME280;10469;42.720;23.252;2023-03-16T01:38:57;94105.47;;;1.85;100.00
20620;BME280;10469;42.720;23.252;2023-03-16T01:41:24;94111.56;;;1.65;100.00
20620;BME280;10469;42.720;23.252;2023-03-16T01:43:51;94117.47;;;1.81;100.00
20620;BME280;10469;42.720;23.252;2023-03-16T01:46:22;94130.31;;;1.97;100.00
20620;BME280;10469;42.720;23.252;2023-03-16T01:48:50;94140.06;;;1.96;100.00
20620;BME280;10469;42.720;23.252;2023-03-16T01:51:33;94139.84;;;1.85;100.00
20620;BME280;10469;42.720;23.252;2023-03-16T01:54:10;94121.31;;;1.65;100.00
20620;BME280;10469;42.720;23.252;2023-03-16T01:56:53;94142.66;;;1.63;100.00
20620;BME280;10469;42.720;23.252;2023-03-16T01:59:29;94130.63;;;1.54;100.00
20620;BME280;10469;42.720;23.252;2023-03-16T02:01:56;94131.63;;;1.40;100.00
20620;BME280;10469;42.720;23.252;2023-03-16T02:06:56;94145.59;;;1.27;100.00
20620;BME280;10469;42.720;23.252;2023-03-16T02:09:23;94147.41;;;1.27;100.00
20620;BME280;10469;42.720;23.252;2023-03-16T02:11:50;94160.63;;;1.27;100.00
20620;BME280;10469;42.720;23.252;2023-03-16T02:14:16;94148.78;;;1.16;100.00
20620;BME280;10469;42.720;23.252;2023-03-16T02:16:41;94168.31;;;1.21;100.00
20620;BME280;10469;42.720;23.252;2023-03-16T02:19:11;94163.88;;;1.29;100.00
20620;BME280;10469;42.720;23.252;2023-03-16T02:21:46;94167.72;;;1.26;100.00
20620;BME280;10469;42.720;23.252;2023-03-16T02:24:18;94159.00;;;1.25;100.00
20620;BME280;10469;42.720;23.252;2023-03-16T02:27:07;94181.09;;;1.18;100.00
20620;BME280;10469;42.720;23.252;2023-03-16T02:29:58;94183.75;;;1.18;100.00
20620;BME280;10469;42.720;23.252;2023-03-16T02:32:28;94182.41;;;1.35;100.00
20620;BME280;10469;42.720;23.252;2023-03-16T02:34:55;94172.38;;;1.24;100.00
20620;BME280;10469;42.720;23.252;2023-03-16T02:37:21;94179.88;;;1.20;100.00
20620;BME280;10469;42.720;23.252;2023-03-16T02:39:46;94174.75;;;1.12;100.00
20620;BME280;10469;42.720;23.252;2023-03-16T02:42:17;94194.16;;;1.33;100.00
20620;BME280;10469;42.720;23.252;2023-03-16T02:44:47;94187.41;;;1.23;100.00
20620;BME280;10469;42.720;23.252;2023-03-16T02:47:22;94192.69;;;1.23;100.00
20620;BME280;10469;42.720;23.252;2023-03-16T02:49:48;94187.41;;;1.23;100.00
20620;BME280;10469;42.720;23.252;2023-03-16T02:52:14;94189.66;;;1.27;100.00
20620;BME280;10469;42.720;23.252;2023-03-16T02:54:39;94197.78;;;1.25;100.00
20620;BME280;10469;42.720;23.252;2023-03-16T02:57:05;94192.09;;;1.21;100.00
20620;BME280;10469;42.720;23.252;2023-03-16T02:59:31;94190.41;;;1.14;100.00
20620;BME280;10469;42.720;23.252;2023-03-16T03:01:56;94187.56;;;1.09;100.00
20620;BME280;10469;42.720;23.252;2023-03-16T03:04:22;94186.75;;;1.15;100.00
20620;BME280;10469;42.720;23.252;2023-03-16T03:06:49;94183.69;;;1.11;100.00
20620;BME280;10469;42.720;23.252;2023-03-16T03:09:16;94202.22;;;1.18;100.00
20620;BME280;10469;42.720;23.252;2023-03-16T03:11:42;94196.50;;;1.14;100.00
20620;BME280;10469;42.720;23.252;2023-03-16T03:14:08;94198.72;;;1.11;100.00
20620;BME280;10469;42.720;23.252;2023-03-16T03:16:34;94195.88;;;1.12;100.00
20620;BME280;10469;42.720;23.252;2023-03-16T03:18:59;94217.03;;;1.19;100.00
20620;BME280;10469;42.720;23.252;2023-03-16T03:21:25;94214.78;;;1.09;100.00
20620;BME280;10469;42.720;23.252;2023-03-16T03:23:51;94227.97;;;1.09;100.00
20620;BME280;10469;42.720;23.252;2023-03-16T03:26:18;94227.09;;;1.02;100.00
20620;BME280;10469;42.720;23.252;2023-03-16T03:28:44;94233.16;;;0.96;100.00
20620;BME280;10469;42.720;23.252;2023-03-16T03:31:19;94230.75;;;1.01;100.00
20620;BME280;10469;42.720;23.252;2023-03-16T03:33:44;94227.25;;;0.94;100.00
20620;BME280;10469;42.720;23.252;2023-03-16T03:36:10;94223.38;;;0.90;100.00
20620;BME280;10469;42.720;23.252;2023-03-16T03:38:39;94233.84;;;1.11;100.00
20620;BME280;10469;42.720;23.252;2023-03-16T03:41:05;94226.28;;;1.02;100.00
20620;BME280;10469;42.720;23.252;2023-03-16T03:43:33;94236.84;;;1.02;100.00
20620;BME280;10469;42.720;23.252;2023-03-16T03:46:00;94228.31;;;0.99;100.00
20620;BME280;10469;42.720;23.252;2023-03-16T03:48:27;94240.97;;;1.11;100.00
20620;BME280;10469;42.720;23.252;2023-03-16T03:50:53;94232.38;;;1.02;100.00
20620;BME280;10469;42.720;23.252;2023-03-16T03:53:19;94250.91;;;1.09;100.00
20620;BME280;10469;42.720;23.252;2023-03-16T03:55:45;94242.56;;;1.05;100.00
20620;BME280;10469;42.720;23.252;2023-03-16T03:58:10;94251.31;;;1.12;100.00
20620;BME280;10469;42.720;23.252;2023-03-16T04:00:39;94247.63;;;1.07;100.00
20620;BME280;10469;42.720;23.252;2023-03-16T04:03:04;94254.53;;;1.08;100.00
20620;BME280;10469;42.720;23.252;2023-03-16T04:05:31;94256.22;;;1.15;100.00
20620;BME280;10469;42.720;23.252;2023-03-16T04:07:56;94251.59;;;1.17;100.00
20620;BME280;10469;42.720;23.252;2023-03-16T04:10:27;94255.69;;;1.27;100.00
20620;BME280;10469;42.720;23.252;2023-03-16T04:12:54;94270.28;;;1.22;100.00
20620;BME280;10469;42.720;23.252;2023-03-16T04:15:23;94252.56;;;1.16;100.00
20620;BME280;10469;42.720;23.252;2023-03-16T04:17:49;94270.22;;;1.09;100.00
20620;BME280;10469;42.720;23.252;2023-03-16T04:20:17;94266.63;;;1.23;100.00
20620;BME280;10469;42.720;23.252;2023-03-16T04:22:46;94271.34;;;1.28;100.00
20620;BME280;10469;42.720;23.252;2023-03-16T04:25:14;94252.41;;;1.24;100.00
20620;BME280;10469;42.720;23.252;2023-03-16T04:27:41;94259.72;;;1.22;100.00
20620;BME280;10469;42.720;23.252;2023-03-16T04:30:12;94262.97;;;1.24;100.00
20620;BME280;10469;42.720;23.252;2023-03-16T04:32:39;94284.16;;;1.31;100.00
20620;BME280;10469;42.720;23.252;2023-03-16T04:35:05;94273.97;;;1.28;100.00
20620;BME280;10469;42.720;23.252;2023-03-16T04:37:30;94286.38;;;1.28;100.00
20620;BME280;10469;42.720;23.252;2023-03-16T04:39:56;94297.31;;;1.24;100.00
20620;BME280;10469;42.720;23.252;2023-03-16T04:42:22;94298.25;;;1.10;100.00
20620;BME280;10469;42.720;23.252;2023-03-16T04:44:47;94298.84;;;1.12;100.00
20620;BME280;10469;42.720;23.252;2023-03-16T04:47:15;94304.72;;;1.08;100.00
20620;BME280;10469;42.720;23.252;2023-03-16T04:49:41;94312.06;;;1.12;100.00
20620;BME280;10469;42.720;23.252;2023-03-16T04:52:07;94301.31;;;1.14;100.00
20620;BME280;10469;42.720;23.252;2023-03-16T04:54:34;94304.78;;;1.14;100.00
20620;BME280;10469;42.720;23.252;2023-03-16T04:57:00;94305.88;;;0.98;100.00
20620;BME280;10469;42.720;23.252;2023-03-16T04:59:28;94311.38;;;1.04;100.00
20620;BME280;10469;42.720;23.252;2023-03-16T05:01:53;94319.38;;;1.10;100.00
20620;BME280;10469;42.720;23.252;2023-03-16T05:04:19;94323.16;;;1.01;100.00
20620;BME280;10469;42.720;23.252;2023-03-16T05:06:47;94321.25;;;0.95;100.00
20620;BME280;10469;42.720;23.252;2023-03-16T05:09:13;94302.94;;;0.87;100.00
20620;BME280;10469;42.720;23.252;2023-03-16T05:11:39;94326.13;;;0.91;100.00
20620;BME280;10469;42.720;23.252;2023-03-16T05:14:04;94327.78;;;0.99;100.00
20620;BME280;10469;42.720;23.252;2023-03-16T05:16:30;94307.38;;;0.86;100.00
20620;BME280;10469;42.720;23.252;2023-03-16T05:18:57;94295.59;;;0.82;100.00
20620;BME280;10469;42.720;23.252;2023-03-16T05:21:23;94338.06;;;0.87;100.00
20620;BME280;10469;42.720;23.252;2023-03-16T05:23:49;94329.72;;;0.84;100.00
20620;BME280;10469;42.720;23.252;2023-03-16T05:26:16;94340.38;;;0.97;100.00
20620;BME280;10469;42.720;23.252;2023-03-16T05:28:42;94335.88;;;0.91;100.00
20620;BME280;10469;42.720;23.252;2023-03-16T05:31:08;94351.19;;;1.02;100.00
20620;BME280;10469;42.720;23.252;2023-03-16T05:33:34;94356.03;;;0.98;100.00
20620;BME280;10469;42.720;23.252;2023-03-16T05:36:00;94343.59;;;1.20;100.00
20620;BME280;10469;42.720;23.252;2023-03-16T05:38:27;94357.03;;;0.97;100.00
20620;BME280;10469;42.720;23.252;2023-03-16T05:40:54;94368.84;;;1.02;100.00
20620;BME280;10469;42.720;23.252;2023-03-16T05:43:20;94362.06;;;1.14;100.00
20620;BME280;10469;42.720;23.252;2023-03-16T05:45:46;94352.56;;;0.98;100.00
20620;BME280;10469;42.720;23.252;2023-03-16T05:48:12;94365.84;;;1.05;100.00
20620;BME280;10469;42.720;23.252;2023-03-16T05:50:40;94368.53;;;1.11;100.00
20620;BME280;10469;42.720;23.252;2023-03-16T05:53:06;94372.50;;;1.00;100.00
20620;BME280;10469;42.720;23.252;2023-03-16T05:55:31;94381.34;;;1.14;100.00
20620;BME280;10469;42.720;23.252;2023-03-16T05:57:57;94377.94;;;1.20;100.00
20620;BME280;10469;42.720;23.252;2023-03-16T06:00:23;94387.81;;;1.12;100.00
20620;BME280;10469;42.720;23.252;2023-03-16T06:02:50;94389.28;;;1.14;100.00
20620;BME280;10469;42.720;23.252;2023-03-16T06:05:17;94384.47;;;1.24;100.00
20620;BME280;10469;42.720;23.252;2023-03-16T06:07:44;94384.88;;;1.21;100.00
20620;BME280;10469;42.720;23.252;2023-03-16T06:10:12;94390.25;;;1.35;100.00
20620;BME280;10469;42.720;23.252;2023-03-16T06:12:38;94394.31;;;1.37;100.00
20620;BME280;10469;42.720;23.252;2023-03-16T06:15:05;94385.22;;;1.40;100.00
20620;BME280;10469;42.720;23.252;2023-03-16T06:17:34;94381.25;;;1.57;100.00
20620;BME280;10469;42.720;23.252;2023-03-16T06:20:00;94400.91;;;1.48;100.00
20620;BME280;10469;42.720;23.252;2023-03-16T06:22:25;94406.78;;;1.43;100.00
20620;BME280;10469;42.720;23.252;2023-03-16T06:24:51;94393.84;;;1.55;100.00
20620;BME280;10469;42.720;23.252;2023-03-16T06:27:17;94407.97;;;1.69;100.00
20620;BME280;10469;42.720;23.252;2023-03-16T06:29:45;94415.28;;;1.67;100.00
20620;BME280;10469;42.720;23.252;2023-03-16T06:32:11;94401.53;;;1.50;100.00
20620;BME280;10469;42.720;23.252;2023-03-16T06:34:36;94416.03;;;1.33;100.00
20620;BME280;10469;42.720;23.252;2023-03-16T06:37:02;94418.84;;;1.53;100.00
20620;BME280;10469;42.720;23.252;2023-03-16T06:39:29;94422.72;;;1.57;100.00
20620;BME280;10469;42.720;23.252;2023-03-16T06:41:54;94431.47;;;1.57;100.00
20620;BME280;10469;42.720;23.252;2023-03-16T06:44:19;94431.13;;;1.39;100.00
20620;BME280;10469;42.720;23.252;2023-03-16T06:46:45;94441.22;;;1.57;100.00
20620;BME280;10469;42.720;23.252;2023-03-16T06:49:11;94442.97;;;1.21;100.00
20620;BME280;10469;42.720;23.252;2023-03-16T06:51:36;94430.50;;;1.37;100.00
20620;BME280;10469;42.720;23.252;2023-03-16T06:54:02;94439.66;;;1.41;100.00
20620;BME280;10469;42.720;23.252;2023-03-16T06:56:27;94447.09;;;1.52;100.00
20620;BME280;10469;42.720;23.252;2023-03-16T06:58:53;94450.06;;;1.70;100.00
20620;BME280;10469;42.720;23.252;2023-03-16T07:01:19;94462.84;;;1.67;100.00
20620;BME280;10469;42.720;23.252;2023-03-16T07:03:45;94467.44;;;1.58;100.00
20620;BME280;10469;42.720;23.252;2023-03-16T07:06:11;94460.34;;;1.59;100.00
20620;BME280;10469;42.720;23.252;2023-03-16T07:08:37;94466.91;;;1.41;100.00
20620;BME280;10469;42.720;23.252;2023-03-16T07:11:02;94452.94;;;1.47;100.00
20620;BME280;10469;42.720;23.252;2023-03-16T07:13:28;94461.66;;;1.69;100.00
20620;BME280;10469;42.720;23.252;2023-03-16T07:15:53;94468.50;;;1.64;100.00
20620;BME280;10469;42.720;23.252;2023-03-16T07:18:19;94474.31;;;1.81;100.00
20620;BME280;10469;42.720;23.252;2023-03-16T07:20:45;94483.34;;;1.86;100.00
20620;BME280;10469;42.720;23.252;2023-03-16T07:23:11;94480.31;;;1.68;100.00
20620;BME280;10469;42.720;23.252;2023-03-16T07:25:37;94480.88;;;1.85;100.00
20620;BME280;10469;42.720;23.252;2023-03-16T07:28:03;94475.50;;;1.99;100.00
20620;BME280;10469;42.720;23.252;2023-03-16T07:30:29;94476.44;;;1.92;100.00
20620;BME280;10469;42.720;23.252;2023-03-16T07:32:55;94472.91;;;1.78;100.00
20620;BME280;10469;42.720;23.252;2023-03-16T07:35:21;94478.88;;;1.87;100.00
20620;BME280;10469;42.720;23.252;2023-03-16T07:37:46;94485.06;;;2.00;100.00
20620;BME280;10469;42.720;23.252;2023-03-16T07:40:15;94472.31;;;1.83;100.00
20620;BME280;10469;42.720;23.252;2023-03-16T07:42:41;94466.16;;;1.75;100.00
20620;BME280;10469;42.720;23.252;2023-03-16T07:45:07;94486.56;;;1.82;100.00
20620;BME280;10469;42.720;23.252;2023-03-16T07:47:33;94493.25;;;1.56;100.00
20620;BME280;10469;42.720;23.252;2023-03-16T07:49:59;94493.03;;;1.79;100.00
20620;BME280;10469;42.720;23.252;2023-03-16T07:52:25;94492.78;;;2.02;100.00
20620;BME280;10469;42.720;23.252;2023-03-16T07:54:51;94492.50;;;2.18;100.00
20620;BME280;10469;42.720;23.252;2023-03-16T07:57:17;94487.63;;;2.22;100.00
20620;BME280;10469;42.720;23.252;2023-03-16T07:59:43;94489.16;;;2.03;100.00
20620;BME280;10469;42.720;23.252;2023-03-16T08:02:13;94490.41;;;2.48;100.00
20620;BME280;10469;42.720;23.252;2023-03-16T08:04:39;94501.16;;;2.40;100.00
20620;BME280;10469;42.720;23.252;2023-03-16T08:07:10;94484.59;;;2.60;100.00
20620;BME280;10469;42.720;23.252;2023-03-16T08:09:36;94494.09;;;2.54;100.00
20620;BME280;10469;42.720;23.252;2023-03-16T08:12:02;94482.88;;;2.45;100.00
20620;BME280;10469;42.720;23.252;2023-03-16T08:14:29;94482.88;;;2.45;100.00
20620;BME280;10469;42.720;23.252;2023-03-16T08:16:55;94498.47;;;2.68;100.00
20620;BME280;10469;42.720;23.252;2023-03-16T08:19:20;94482.09;;;2.58;100.00
20620;BME280;10469;42.720;23.252;2023-03-16T08:21:46;94492.63;;;2.93;100.00
20620;BME280;10469;42.720;23.252;2023-03-16T08:24:12;94499.63;;;3.07;100.00
20620;BME280;10469;42.720;23.252;2023-03-16T08:26:37;94496.78;;;3.15;100.00
20620;BME280;10469;42.720;23.252;2023-03-16T08:29:03;94506.78;;;3.20;100.00
20620;BME280;10469;42.720;23.252;2023-03-16T08:31:29;94513.97;;;3.33;100.00
20620;BME280;10469;42.720;23.252;2023-03-16T08:33:55;94511.63;;;3.10;100.00
20620;BME280;10469;42.720;23.252;2023-03-16T08:36:21;94526.06;;;2.94;100.00
20620;BME280;10469;42.720;23.252;2023-03-16T08:38:48;94518.53;;;2.97;100.00
20620;BME280;10469;42.720;23.252;2023-03-16T08:41:13;94521.94;;;2.85;100.00
20620;BME280;10469;42.720;23.252;2023-03-16T08:43:41;94519.97;;;2.52;100.00
20620;BME280;10469;42.720;23.252;2023-03-16T08:46:06;94518.28;;;2.86;100.00
20620;BME280;10469;42.720;23.252;2023-03-16T08:48:32;94508.75;;;2.98;100.00
20620;BME280;10469;42.720;23.252;2023-03-16T08:51:01;94521.38;;;2.96;100.00
20620;BME280;10469;42.720;23.252;2023-03-16T08:53:26;94523.72;;;2.71;100.00
20620;BME280;10469;42.720;23.252;2023-03-16T08:56:07;94536.13;;;3.12;100.00
20620;BME280;10469;42.720;23.252;2023-03-16T08:58:33;94513.69;;;3.14;100.00
20620;BME280;10469;42.720;23.252;2023-03-16T09:01:00;94511.84;;;3.08;100.00
20620;BME280;10469;42.720;23.252;2023-03-16T09:03:26;94536.28;;;3.04;100.00
20620;BME280;10469;42.720;23.252;2023-03-16T09:05:53;94523.94;;;3.24;100.00
20620;BME280;10469;42.720;23.252;2023-03-16T09:08:19;94528.41;;;3.37;100.00
20620;BME280;10469;42.720;23.252;2023-03-16T09:10:44;94532.06;;;3.22;100.00
20620;BME280;10469;42.720;23.252;2023-03-16T09:13:11;94523.47;;;3.14;100.00
20620;BME280;10469;42.720;23.252;2023-03-16T09:15:37;94532.22;;;3.08;100.00
20620;BME280;10469;42.720;23.252;2023-03-16T09:18:04;94541.03;;;3.28;100.00
20620;BME280;10469;42.720;23.252;2023-03-16T09:20:30;94535.34;;;3.31;100.00
20620;BME280;10469;42.720;23.252;2023-03-16T09:22:56;94534.31;;;3.32;100.00
20620;BME280;10469;42.720;23.252;2023-03-16T09:25:22;94555.41;;;2.99;100.00
20620;BME280;10469;42.720;23.252;2023-03-16T09:27:49;94527.81;;;2.73;100.00
20620;BME280;10469;42.720;23.252;2023-03-16T09:30:15;94537.66;;;2.93;100.00
20620;BME280;10469;42.720;23.252;2023-03-16T09:32:41;94539.41;;;3.20;100.00
20620;BME280;10469;42.720;23.252;2023-03-16T09:35:07;94540.59;;;3.18;100.00
20620;BME280;10469;42.720;23.252;2023-03-16T09:37:33;94543.69;;;2.73;100.00
20620;BME280;10469;42.720;23.252;2023-03-16T09:39:59;94543.69;;;2.80;100.00
20620;BME280;10469;42.720;23.252;2023-03-16T09:42:36;94542.44;;;2.69;100.00
20620;BME280;10469;42.720;23.252;2023-03-16T09:45:08;94552.16;;;2.56;100.00
20620;BME280;10469;42.720;23.252;2023-03-16T09:47:39;94555.31;;;2.79;100.00
20620;BME280;10469;42.720;23.252;2023-03-16T09:50:09;94562.00;;;2.68;100.00
20620;BME280;10469;42.720;23.252;2023-03-16T09:55:37;94537.50;;;2.60;100.00
20620;BME280;10469;42.720;23.252;2023-03-16T09:58:18;94565.38;;;2.97;100.00
20620;BME280;10469;42.720;23.252;2023-03-16T10:01:32;94577.53;;;2.85;100.00
20620;BME280;10469;42.720;23.252;2023-03-16T10:04:20;94571.53;;;3.04;100.00
20620;BME280;10469;42.720;23.252;2023-03-16T10:12:15;94541.03;;;3.28;100.00
20620;BME280;10469;42.720;23.252;2023-03-16T10:15:00;94550.69;;;3.56;100.00
20620;BME280;10469;42.720;23.252;2023-03-16T10:17:38;94571.78;;;3.22;100.00
20620;BME280;10469;42.720;23.252;2023-03-16T10:20:12;94550.19;;;3.19;100.00
20620;BME280;10469;42.720;23.252;2023-03-16T10:22:43;94567.91;;;3.12;100.00
20620;BME280;10469;42.720;23.252;2023-03-16T10:25:22;94559.38;;;3.23;100.00
20620;BME280;10469;42.720;23.252;2023-03-16T10:27:50;94561.25;;;3.29;100.00
20620;BME280;10469;42.720;23.252;2023-03-16T10:30:27;94561.84;;;3.24;100.00
20620;BME280;10469;42.720;23.252;2023-03-16T10:32:55;94559.97;;;3.18;100.00
20620;BME280;10469;42.720;23.252;2023-03-16T10:35:45;94558.88;;;3.06;100.00
20620;BME280;10469;42.720;23.252;2023-03-16T10:41:05;94530.00;;;3.18;100.00
20620;BME280;10469;42.720;23.252;2023-03-16T10:43:30;94543.53;;;3.43;100.00
20620;BME280;10469;42.720;23.252;2023-03-16T10:46:02;94549.66;;;3.43;100.00
20620;BME280;10469;42.720;23.252;2023-03-16T10:48:30;94539.81;;;3.31;100.00
20620;BME280;10469;42.720;23.252;2023-03-16T10:50:59;94542.13;;;3.47;100.00
20620;BME280;10469;42.720;23.252;2023-03-16T10:53:30;94534.13;;;3.34;100.00
20620;BME280;10469;42.720;23.252;2023-03-16T10:55:58;94553.50;;;3.41;100.00
20620;BME280;10469;42.720;23.252;2023-03-16T10:58:29;94542.09;;;3.34;100.00
20620;BME280;10469;42.720;23.252;2023-03-16T11:00:55;94542.28;;;3.39;100.00
20620;BME280;10469;42.720;23.252;2023-03-16T11:03:26;94556.56;;;3.44;100.00
20620;BME280;10469;42.720;23.252;2023-03-16T11:06:03;94551.03;;;3.26;100.00
20620;BME280;10469;42.720;23.252;2023-03-16T11:08:38;94557.38;;;3.45;100.00
20620;BME280;10469;42.720;23.252;2023-03-16T11:13:55;94561.84;;;3.24;100.00
20620;BME280;10469;42.720;23.252;2023-03-16T11:19:23;94553.25;;;3.22;100.00
20620;BME280;10469;42.720;23.252;2023-03-16T11:21:52;94560.34;;;3.09;100.00
20620;BME280;10469;42.720;23.252;2023-03-16T11:30:04;94562.69;;;3.45;100.00
20620;BME280;10469;42.720;23.252;2023-03-16T11:32:39;94563.16;;;3.68;100.00
20620;BME280;10469;42.720;23.252;2023-03-16T11:35:16;94565.78;;;3.62;100.00
20620;BME280;10469;42.720;23.252;2023-03-16T11:46:23;94568.38;;;3.29;100.00
20620;BME280;10469;42.720;23.252;2023-03-16T11:51:47;94575.25;;;3.16;100.00
20620;BME280;10469;42.720;23.252;2023-03-16T11:54:39;94573.63;;;3.22;100.00
20620;BME280;10469;42.720;23.252;2023-03-16T11:57:46;94568.84;;;2.97;100.00
20620;BME280;10469;42.720;23.252;2023-03-16T12:03:34;94581.75;;;3.07;100.00
20620;BME280;10469;42.720;23.252;2023-03-16T12:06:21;94584.19;;;3.09;100.00
20620;BME280;10469;42.720;23.252;2023-03-16T12:11:55;94592.69;;;2.97;100.00
20620;BME280;10469;42.720;23.252;2023-03-16T12:14:44;94579.66;;;2.96;100.00
20620;BME280;10469;42.720;23.252;2023-03-16T12:17:16;94583.31;;;3.01;100.00
20620;BME280;10469;42.720;23.252;2023-03-16T12:22:58;94587.81;;;3.01;100.00
20620;BME280;10469;42.720;23.252;2023-03-16T12:25:31;94586.88;;;2.81;100.00
20620;BME280;10469;42.720;23.252;2023-03-16T12:28:02;94599.53;;;2.79;100.00
20620;BME280;10469;42.720;23.252;2023-03-16T12:31:13;94599.81;;;2.97;100.00
20620;BME280;10469;42.720;23.252;2023-03-16T12:33:46;94599.44;;;3.00;100.00
20620;BME280;10469;42.720;23.252;2023-03-16T12:39:05;94605.75;;;2.99;100.00
20620;BME280;10469;42.720;23.252;2023-03-16T12:41:45;94611.03;;;2.99;100.00
20620;BME280;10469;42.720;23.252;2023-03-16T12:44:43;94615.25;;;2.87;100.00
20620;BME280;10469;42.720;23.252;2023-03-16T12:47:35;94612.41;;;2.88;100.00
20620;BME280;10469;42.720;23.252;2023-03-16T12:50:11;94624.78;;;2.46;100.00
20620;BME280;10469;42.720;23.252;2023-03-16T12:52:45;94621.16;;;2.54;100.00
20620;BME280;10469;42.720;23.252;2023-03-16T12:58:15;94634.66;;;2.10;100.00
20620;BME280;10469;42.720;23.252;2023-03-16T13:00:42;94630.78;;;2.34;100.00
20620;BME280;10469;42.720;23.252;2023-03-16T13:03:19;94642.94;;;2.28;100.00
20620;BME280;10469;42.720;23.252;2023-03-16T13:05:52;94638.84;;;2.25;100.00
20620;BME280;10469;42.720;23.252;2023-03-16T13:08:19;94631.88;;;2.46;100.00
20620;BME280;10469;42.720;23.252;2023-03-16T13:11:05;94646.75;;;2.75;100.00
20620;BME280;10469;42.720;23.252;2023-03-16T13:13:32;94637.03;;;2.89;100.00
20620;BME280;10469;42.720;23.252;2023-03-16T13:16:26;94638.91;;;2.60;100.00
20620;BME280;10469;42.720;23.252;2023-03-16T13:18:52;94653.09;;;2.81;100.00
20620;BME280;10469;42.720;23.252;2023-03-16T13:24:13;94638.38;;;3.06;100.00
20620;BME280;10469;42.720;23.252;2023-03-16T13:26:43;94640.09;;;2.86;100.00
20620;BME280;10469;42.720;23.252;2023-03-16T13:29:30;94640.25;;;3.12;100.00
20620;BME280;10469;42.720;23.252;2023-03-16T13:31:58;94653.41;;;2.99;100.00
20620;BME280;10469;42.720;23.252;2023-03-16T13:34:30;94651.97;;;3.38;100.00
20620;BME280;10469;42.720;23.252;2023-03-16T13:36:57;94646.75;;;3.10;100.00
20620;BME280;10469;42.720;23.252;2023-03-16T13:39:25;94660.72;;;3.32;100.00
20620;BME280;10469;42.720;23.252;2023-03-16T13:42:02;94651.94;;;3.31;100.00
20620;BME280;10469;42.720;23.252;2023-03-16T13:44:29;94659.16;;;3.09;100.00
20620;BME280;10469;42.720;23.252;2023-03-16T13:46:55;94654.88;;;2.73;100.00
20620;BME280;10469;42.720;23.252;2023-03-16T13:49:21;94644.69;;;2.70;100.00
20620;BME280;10469;42.720;23.252;2023-03-16T13:51:47;94641.94;;;2.85;100.00
20620;BME280;10469;42.720;23.252;2023-03-16T13:56:52;94665.78;;;2.92;100.00